Time;durP1;ratioP1;P1;durP2;ratioP2;P2;SDS_P1;SDS_P2;PMS_P1;PMS_P2;Temp;Humidity;BMP_temperature;BMP_pressure;BME280_temperature;BME280_humidity;BME280_pressure;Samples;Min_cycle;Max_cycle;Signal;HPM_P1;HPM_P2
2023/09/07 00:01:34;;;;;;;6.15;3.67;;;;;;;;;;5084144;28;20048;-73
2023/09/07 00:04:06;;;;;;;7.70;2.92;;;;;;;;;;5084210;28;20453;-74
2023/09/07 00:06:37;;;;;;;8.27;3.55;;;;;;;;;;5082959;28;20639;-73
2023/09/07 00:09:08;;;;;;;7.72;4.13;;;;;;;;;;5084269;28;20048;-75
2023/09/07 00:11:39;;;;;;;6.38;3.95;;;;;;;;;;5083155;28;20055;-73
2023/09/07 00:14:11;;;;;;;8.75;4.03;;;;;;;;;;5083795;28;20040;-73
2023/09/07 00:16:42;;;;;;;5.75;4.20;;;;;;;;;;5084406;28;20534;-74
2023/09/07 00:19:12;;;;;;;11.77;5.63;;;;;;;;;;5081748;28;20455;-74
2023/09/07 00:21:42;;;;;;;9.65;4.07;;;;;;;;;;5083546;28;20079;-74
2023/09/07 00:24:12;;;;;;;9.13;4.00;;;;;;;;;;5083867;28;20044;-74
2023/09/07 00:26:43;;;;;;;11.20;4.97;;;;;;;;;;5083804;28;20055;-73
2023/09/07 00:29:13;;;;;;;23.60;5.22;;;;;;;;;;5083650;28;20055;-74
2023/09/07 00:31:43;;;;;;;8.65;4.45;;;;;;;;;;5083830;28;20071;-73
2023/09/07 00:34:14;;;;;;;6.38;4.15;;;;;;;;;;5083718;28;20050;-73
2023/09/07 00:36:45;;;;;;;8.30;3.83;;;;;;;;;;5083120;28;20435;-73
2023/09/07 00:39:15;;;;;;;5.68;3.45;;;;;;;;;;5083875;28;20059;-75
2023/09/07 00:41:48;;;;;;;7.30;3.67;;;;;;;;;;5083878;28;20415;-75
2023/09/07 00:44:18;;;;;;;7.57;3.60;;;;;;;;;;5081934;28;20048;-75
2023/09/07 00:46:49;;;;;;;8.43;4.28;;;;;;;;;;5083872;28;20055;-74
2023/09/07 00:49:21;;;;;;;7.07;4.47;;;;;;;;;;5082787;28;20799;-74
2023/09/07 00:51:52;;;;;;;9.73;4.20;;;;;;;;;;5082948;28;20052;-73
2023/09/07 00:54:23;;;;;;;8.32;4.50;;;;;;;;;;5081328;28;20522;-74
2023/09/07 00:56:55;;;;;;;6.70;3.80;;;;;;;;;;5080823;28;20052;-73
2023/09/07 00:59:28;;;;;;;9.10;3.78;;;;;;;;;;5081944;28;20055;-73
2023/09/07 01:01:58;;;;;;;9.40;4.05;;;;;;;;;;5081810;28;20052;-74
2023/09/07 01:04:29;;;;;;;8.45;4.18;;;;;;;;;;5081356;28;20048;-74
2023/09/07 01:07:22;;;;;;;15.02;4.53;;;;;;;;;;5080571;28;20063;-74
2023/09/07 01:09:57;;;;;;;11.45;4.78;;;;;;;;;;5080085;28;20052;-74
2023/09/07 01:12:27;;;;;;;9.43;3.72;;;;;;;;;;5080401;28;20506;-74
2023/09/07 01:14:58;;;;;;;8.85;4.05;;;;;;;;;;5082184;28;20040;-74
2023/09/07 01:17:30;;;;;;;11.00;3.90;;;;;;;;;;5080608;28;20052;-76
2023/09/07 01:20:11;;;;;;;8.73;4.18;;;;;;;;;;5079599;28;20503;-74
2023/09/07 01:22:41;;;;;;;8.50;4.20;;;;;;;;;;5079629;28;20058;-73
2023/09/07 01:25:11;;;;;;;10.98;4.20;;;;;;;;;;5081147;28;20553;-73
2023/09/07 01:27:43;;;;;;;7.00;3.90;;;;;;;;;;5082032;28;20040;-75
2023/09/07 01:30:14;;;;;;;10.35;4.05;;;;;;;;;;5081185;28;20078;-73
2023/09/07 01:32:45;;;;;;;8.82;4.28;;;;;;;;;;5080408;28;20048;-74
2023/09/07 01:35:21;;;;;;;8.88;4.13;;;;;;;;;;5082519;28;20616;-75
2023/09/07 01:37:52;;;;;;;8.65;4.10;;;;;;;;;;5080784;28;20056;-75
2023/09/07 01:40:23;;;;;;;8.45;4.00;;;;;;;;;;5080972;28;20519;-77
2023/09/07 01:42:54;;;;;;;7.05;4.30;;;;;;;;;;5081175;28;20079;-73
2023/09/07 01:45:23;;;;;;;9.68;3.92;;;;;;;;;;5080586;28;20040;-73
2023/09/07 01:47:55;;;;;;;6.28;3.65;;;;;;;;;;5081695;28;20415;-74
2023/09/07 01:50:26;;;;;;;7.00;4.10;;;;;;;;;;5082753;28;20372;-76
2023/09/07 01:52:57;;;;;;;15.52;4.30;;;;;;;;;;5079997;28;20527;-78
2023/09/07 01:55:28;;;;;;;11.82;4.75;;;;;;;;;;5080563;28;20040;-75
2023/09/07 01:58:01;;;;;;;7.13;4.40;;;;;;;;;;5081852;28;20050;-74
2023/09/07 02:00:37;;;;;;;8.27;3.78;;;;;;;;;;5079734;28;20048;-75
2023/09/07 02:03:10;;;;;;;7.95;3.60;;;;;;;;;;5081053;28;20052;-75
2023/09/07 02:05:40;;;;;;;9.07;3.67;;;;;;;;;;5080708;28;20511;-74
2023/09/07 02:08:11;;;;;;;8.48;3.38;;;;;;;;;;5083110;28;20055;-75
2023/09/07 02:10:42;;;;;;;9.70;4.25;;;;;;;;;;5082899;28;20052;-75
2023/09/07 02:13:13;;;;;;;5.35;3.25;;;;;;;;;;5081817;28;20063;-75
2023/09/07 02:15:44;;;;;;;8.27;3.67;;;;;;;;;;5080272;28;20063;-76
2023/09/07 02:18:15;;;;;;;7.53;3.53;;;;;;;;;;5079982;28;20067;-74
2023/09/07 02:20:45;;;;;;;9.82;3.25;;;;;;;;;;5082228;28;20048;-75
2023/09/07 02:23:15;;;;;;;9.20;3.10;;;;;;;;;;5081545;28;20052;-75
2023/09/07 02:25:46;;;;;;;6.53;2.97;;;;;;;;;;5080869;28;20055;-74
2023/09/07 02:28:17;;;;;;;8.40;2.90;;;;;;;;;;5081523;28;20106;-74
2023/09/07 02:30:48;;;;;;;8.98;2.70;;;;;;;;;;5081996;28;20044;-76
2023/09/07 02:33:19;;;;;;;4.88;3.15;;;;;;;;;;5079573;28;20644;-75
2023/09/07 02:35:50;;;;;;;7.65;3.00;;;;;;;;;;5081848;28;20059;-77
2023/09/07 02:38:20;;;;;;;7.22;2.97;;;;;;;;;;5080873;28;20051;-76
2023/09/07 02:40:56;;;;;;;5.95;2.90;;;;;;;;;;5080724;28;20518;-76
2023/09/07 02:43:27;;;;;;;10.98;3.00;;;;;;;;;;5080436;28;20060;-74
2023/09/07 02:45:58;;;;;;;9.77;3.20;;;;;;;;;;5081482;28;20052;-74
2023/09/07 02:48:29;;;;;;;9.65;2.80;;;;;;;;;;5081848;28;20951;-75
2023/09/07 02:51:00;;;;;;;8.48;2.72;;;;;;;;;;5082229;28;20416;-75
2023/09/07 02:53:31;;;;;;;8.00;3.15;;;;;;;;;;5080204;28;20055;-75
2023/09/07 02:56:03;;;;;;;5.68;3.05;;;;;;;;;;5081347;28;20048;-75
2023/09/07 02:58:37;;;;;;;8.00;2.67;;;;;;;;;;5079879;28;20067;-74
2023/09/07 03:01:11;;;;;;;8.95;2.60;;;;;;;;;;5080784;28;20066;-74
2023/09/07 03:03:42;;;;;;;8.18;2.58;;;;;;;;;;5079629;28;20048;-75
2023/09/07 03:06:16;;;;;;;7.43;3.08;;;;;;;;;;5079481;28;20533;-75
2023/09/07 03:08:50;;;;;;;5.72;2.50;;;;;;;;;;5080242;28;20048;-74
2023/09/07 03:11:21;;;;;;;5.03;2.90;;;;;;;;;;5079432;28;20089;-75
2023/09/07 03:13:52;;;;;;;7.57;2.88;;;;;;;;;;5080145;28;20052;-74
2023/09/07 03:16:22;;;;;;;6.63;3.47;;;;;;;;;;5081396;28;20048;-74
2023/09/07 03:18:53;;;;;;;8.18;3.10;;;;;;;;;;5081494;28;20491;-75
2023/09/07 03:21:29;;;;;;;10.98;3.45;;;;;;;;;;5079592;28;20052;-74
2023/09/07 03:24:01;;;;;;;7.35;3.75;;;;;;;;;;5078878;28;20044;-75
2023/09/07 03:26:32;;;;;;;6.07;3.95;;;;;;;;;;5079341;28;20423;-74
2023/09/07 03:29:03;;;;;;;8.65;3.70;;;;;;;;;;5083528;28;20058;-74
2023/09/07 03:31:34;;;;;;;5.97;2.95;;;;;;;;;;5083779;28;20059;-75
2023/09/07 03:34:06;;;;;;;4.97;3.55;;;;;;;;;;5083580;28;20067;-75
2023/09/07 03:36:37;;;;;;;5.70;3.40;;;;;;;;;;5085679;28;20411;-75
2023/09/07 03:39:08;;;;;;;5.85;4.03;;;;;;;;;;5083227;28;20059;-75
2023/09/07 03:41:39;;;;;;;6.32;3.33;;;;;;;;;;5084588;28;20051;-74
2023/09/07 03:44:09;;;;;;;7.28;2.97;;;;;;;;;;5082856;28;21139;-74
2023/09/07 03:46:40;;;;;;;6.35;3.47;;;;;;;;;;5083254;28;20067;-74
2023/09/07 03:49:11;;;;;;;7.18;3.60;;;;;;;;;;5082700;28;20056;-75
2023/09/07 03:51:42;;;;;;;9.85;3.28;;;;;;;;;;5084423;28;20051;-74
2023/09/07 03:54:13;;;;;;;15.43;3.65;;;;;;;;;;5084693;28;20680;-73
2023/09/07 03:56:44;;;;;;;10.90;3.83;;;;;;;;;;5082918;28;20051;-75
2023/09/07 03:59:14;;;;;;;7.43;4.13;;;;;;;;;;5065808;28;20056;-74
2023/09/07 04:01:44;;;;;;;7.50;3.85;;;;;;;;;;5083188;28;20059;-74
2023/09/07 04:04:15;;;;;;;6.65;4.32;;;;;;;;;;5083625;28;20056;-75
2023/09/07 04:06:51;;;;;;;7.28;3.85;;;;;;;;;;5083958;28;20047;-75
2023/09/07 04:09:21;;;;;;;6.65;3.22;;;;;;;;;;5082598;28;20414;-74
2023/09/07 04:11:52;;;;;;;10.10;4.85;;;;;;;;;;5082072;28;20698;-73
2023/09/07 04:14:22;;;;;;;7.95;4.00;;;;;;;;;;5084452;28;20051;-76
2023/09/07 04:16:52;;;;;;;9.30;4.20;;;;;;;;;;5084285;28;20173;-76
2023/09/07 04:19:22;;;;;;;6.40;4.45;;;;;;;;;;5083065;28;20058;-77
2023/09/07 04:21:52;;;;;;;8.50;5.18;;;;;;;;;;5082264;28;20052;-76
2023/09/07 04:24:23;;;;;;;6.47;4.03;;;;;;;;;;5081901;28;20056;-76
2023/09/07 04:27:00;;;;;;;11.70;4.82;;;;;;;;;;5083295;28;20056;-76
2023/09/07 04:29:31;;;;;;;6.57;4.13;;;;;;;;;;5081491;28;20048;-75
2023/09/07 04:32:02;;;;;;;6.88;3.70;;;;;;;;;;5083267;28;20043;-77
2023/09/07 04:34:34;;;;;;;6.78;4.55;;;;;;;;;;5065550;28;20422;-74
2023/09/07 04:37:04;;;;;;;8.85;4.63;;;;;;;;;;5083793;28;20059;-75
2023/09/07 04:39:34;;;;;;;6.00;4.65;;;;;;;;;;5080169;28;20052;-74
2023/09/07 04:42:04;;;;;;;7.25;5.03;;;;;;;;;;5083446;28;20043;-75
2023/09/07 04:44:35;;;;;;;6.07;4.63;;;;;;;;;;5083371;28;20052;-75
2023/09/07 04:47:06;;;;;;;10.13;5.07;;;;;;;;;;5081917;28;20154;-75
2023/09/07 04:49:36;;;;;;;8.18;4.63;;;;;;;;;;5081839;28;20039;-74
2023/09/07 04:52:07;;;;;;;5.72;4.00;;;;;;;;;;5082410;28;20052;-74
2023/09/07 04:54:38;;;;;;;7.10;4.55;;;;;;;;;;5083673;28;20052;-74
2023/09/07 04:57:09;;;;;;;5.35;4.07;;;;;;;;;;5082313;28;20059;-76
2023/09/07 04:59:40;;;;;;;5.97;3.63;;;;;;;;;;5081039;28;20418;-74
2023/09/07 05:02:12;;;;;;;5.35;3.85;;;;;;;;;;5081268;28;20055;-76
2023/09/07 05:04:43;;;;;;;7.82;3.95;;;;;;;;;;5081353;28;20048;-75
2023/09/07 05:07:13;;;;;;;4.07;3.63;;;;;;;;;;5081311;28;20510;-76
2023/09/07 05:09:45;;;;;;;4.68;2.83;;;;;;;;;;5083265;28;20036;-74
2023/09/07 05:12:18;;;;;;;6.60;3.60;;;;;;;;;;5081265;28;20059;-74
2023/09/07 05:14:50;;;;;;;6.63;3.60;;;;;;;;;;5081269;28;20063;-74
2023/09/07 05:17:21;;;;;;;6.28;3.83;;;;;;;;;;5081839;28;20052;-75
2023/09/07 05:19:52;;;;;;;5.53;3.50;;;;;;;;;;5080704;28;20515;-75
2023/09/07 05:22:22;;;;;;;5.88;3.47;;;;;;;;;;5081392;28;20502;-75
2023/09/07 05:24:53;;;;;;;3.55;3.25;;;;;;;;;;5082227;28;20074;-75
2023/09/07 05:27:23;;;;;;;5.82;3.20;;;;;;;;;;5081150;28;20040;-75
2023/09/07 05:29:54;;;;;;;4.75;3.25;;;;;;;;;;5080783;28;20060;-76
2023/09/07 05:32:23;;;;;;;5.72;3.38;;;;;;;;;;5081046;28;20518;-74
2023/09/07 05:34:55;;;;;;;8.35;3.40;;;;;;;;;;5081067;28;20059;-76
2023/09/07 05:37:25;;;;;;;3.78;2.63;;;;;;;;;;5080929;28;20060;-75
2023/09/07 05:39:56;;;;;;;5.93;3.42;;;;;;;;;;5082504;28;20404;-75
2023/09/07 05:42:26;;;;;;;3.75;2.70;;;;;;;;;;5081313;28;20044;-74
2023/09/07 05:44:57;;;;;;;8.38;2.67;;;;;;;;;;5081306;28;20063;-76
2023/09/07 05:47:28;;;;;;;8.13;3.25;;;;;;;;;;5080557;28;20423;-74
2023/09/07 05:49:59;;;;;;;4.60;2.65;;;;;;;;;;5080813;28;20056;-74
2023/09/07 05:52:30;;;;;;;4.35;2.35;;;;;;;;;;5079296;28;20503;-74
2023/09/07 05:55:00;;;;;;;5.07;2.50;;;;;;;;;;5081002;28;20511;-75
2023/09/07 05:57:31;;;;;;;4.75;2.90;;;;;;;;;;5081872;28;20044;-74
2023/09/07 06:00:04;;;;;;;5.95;2.50;;;;;;;;;;5063847;28;20052;-76
2023/09/07 06:02:40;;;;;;;5.72;2.35;;;;;;;;;;5086764;28;20048;-76
2023/09/07 06:05:13;;;;;;;3.20;1.98;;;;;;;;;;5080389;28;20055;-74
2023/09/07 06:07:44;;;;;;;6.55;2.70;;;;;;;;;;5079840;28;20554;-75
2023/09/07 06:10:17;;;;;;;7.10;3.15;;;;;;;;;;5080408;28;20059;-75
2023/09/07 06:12:49;;;;;;;6.38;2.55;;;;;;;;;;5081010;28;20136;-76
2023/09/07 06:15:20;;;;;;;9.23;2.67;;;;;;;;;;5080810;28;20067;-75
2023/09/07 06:17:51;;;;;;;3.45;2.33;;;;;;;;;;5080372;28;20052;-75
2023/09/07 06:20:22;;;;;;;5.25;2.30;;;;;;;;;;5080280;28;20585;-76
2023/09/07 06:22:53;;;;;;;6.35;2.60;;;;;;;;;;5079679;28;20107;-75
2023/09/07 06:25:23;;;;;;;4.53;3.10;;;;;;;;;;5080438;28;20063;-75
2023/09/07 06:27:57;;;;;;;4.55;2.75;;;;;;;;;;5080636;28;20055;-75
2023/09/07 06:30:28;;;;;;;7.20;2.90;;;;;;;;;;5079632;28;20082;-74
2023/09/07 06:32:58;;;;;;;4.68;2.20;;;;;;;;;;5079741;28;20615;-74
2023/09/07 06:35:28;;;;;;;5.10;2.50;;;;;;;;;;5078836;28;20052;-75
2023/09/07 06:37:59;;;;;;;4.45;2.63;;;;;;;;;;5079728;28;20055;-75
2023/09/07 06:40:30;;;;;;;4.68;2.60;;;;;;;;;;5079913;28;20519;-76
2023/09/07 06:43:05;;;;;;;3.13;1.85;;;;;;;;;;5080319;28;20048;-76
2023/09/07 06:45:37;;;;;;;3.33;2.45;;;;;;;;;;5079362;28;20054;-74
2023/09/07 06:48:07;;;;;;;6.68;2.70;;;;;;;;;;5080065;28;20040;-75
2023/09/07 06:50:38;;;;;;;3.83;2.00;;;;;;;;;;5080533;28;20130;-76
2023/09/07 06:53:09;;;;;;;3.05;2.10;;;;;;;;;;5080143;28;20060;-74
2023/09/07 06:55:40;;;;;;;3.50;1.83;;;;;;;;;;5063861;28;20051;-76
2023/09/07 06:58:10;;;;;;;4.80;2.05;;;;;;;;;;5081386;28;20047;-75
2023/09/07 07:00:40;;;;;;;6.95;2.97;;;;;;;;;;5079566;28;20520;-74
2023/09/07 07:03:11;;;;;;;4.00;1.90;;;;;;;;;;5081459;28;20051;-74
2023/09/07 07:05:42;;;;;;;5.13;1.90;;;;;;;;;;5067211;28;20052;-74
2023/09/07 07:08:12;;;;;;;4.55;1.83;;;;;;;;;;5084221;28;20411;-76
2023/09/07 07:10:44;;;;;;;4.43;2.22;;;;;;;;;;5085282;28;20048;-73
2023/09/07 07:13:15;;;;;;;2.13;1.65;;;;;;;;;;5084163;28;20044;-75
2023/09/07 07:15:45;;;;;;;3.55;1.88;;;;;;;;;;5083049;28;20063;-75
2023/09/07 07:18:16;;;;;;;3.05;1.30;;;;;;;;;;5083653;28;20078;-75
2023/09/07 07:20:46;;;;;;;3.45;1.50;;;;;;;;;;5083202;28;20060;-75
2023/09/07 07:23:18;;;;;;;4.55;1.45;;;;;;;;;;5083737;28;20055;-75
2023/09/07 07:25:48;;;;;;;2.22;1.20;;;;;;;;;;5084871;28;20048;-75
2023/09/07 07:28:18;;;;;;;5.93;1.13;;;;;;;;;;5083407;28;20052;-74
2023/09/07 07:30:53;;;;;;;4.45;1.50;;;;;;;;;;5083097;28;20109;-75
2023/09/07 07:33:24;;;;;;;2.22;1.42;;;;;;;;;;5083112;28;20052;-74
2023/09/07 07:35:54;;;;;;;3.85;1.05;;;;;;;;;;5083281;28;20056;-76
2023/09/07 07:38:24;;;;;;;2.17;0.90;;;;;;;;;;5083708;28;20056;-75
2023/09/07 07:40:54;;;;;;;2.78;1.05;;;;;;;;;;5085889;28;20063;-74
2023/09/07 07:43:26;;;;;;;2.35;0.98;;;;;;;;;;5083013;28;20051;-74
2023/09/07 07:45:59;;;;;;;1.52;0.95;;;;;;;;;;5083357;28;20071;-73
2023/09/07 07:48:33;;;;;;;2.22;0.82;;;;;;;;;;5082256;28;20442;-74
2023/09/07 07:51:05;;;;;;;1.30;1.00;;;;;;;;;;5082434;28;20056;-74
2023/09/07 07:53:43;;;;;;;5.88;1.20;;;;;;;;;;5084174;28;20407;-75
2023/09/07 07:56:20;;;;;;;3.97;0.82;;;;;;;;;;5084602;28;20458;-76
2023/09/07 07:58:53;;;;;;;3.00;1.05;;;;;;;;;;5081854;28;20051;-74
2023/09/07 08:01:25;;;;;;;1.00;0.65;;;;;;;;;;5084201;28;20047;-74
2023/09/07 08:03:56;;;;;;;0.70;0.70;;;;;;;;;;5082248;28;20040;-75
2023/09/07 08:06:33;;;;;;;1.30;0.82;;;;;;;;;;5082743;28;20056;-75
2023/09/07 08:09:04;;;;;;;1.73;0.60;;;;;;;;;;5084826;28;20040;-75
2023/09/07 08:11:36;;;;;;;1.85;0.77;;;;;;;;;;5084134;28;20058;-75
2023/09/07 08:14:08;;;;;;;2.00;0.80;;;;;;;;;;5081999;28;20052;-78
2023/09/07 08:16:39;;;;;;;1.02;0.60;;;;;;;;;;5081990;28;20056;-75
2023/09/07 08:19:11;;;;;;;1.42;0.80;;;;;;;;;;5082866;28;20059;-75
2023/09/07 08:21:45;;;;;;;2.03;0.73;;;;;;;;;;5082282;28;20052;-75
2023/09/07 08:24:18;;;;;;;5.28;0.90;;;;;;;;;;5082764;28;20056;-74
2023/09/07 08:26:54;;;;;;;1.27;0.63;;;;;;;;;;5084014;28;20059;-76
2023/09/07 08:29:26;;;;;;;0.85;0.70;;;;;;;;;;5082900;28;20055;-76
2023/09/07 08:31:59;;;;;;;1.75;0.80;;;;;;;;;;5083640;28;20055;-75
2023/09/07 08:34:31;;;;;;;1.98;0.52;;;;;;;;;;5083555;28;20058;-76
2023/09/07 08:37:02;;;;;;;0.65;0.57;;;;;;;;;;5083941;28;20052;-76
2023/09/07 08:39:34;;;;;;;2.22;0.55;;;;;;;;;;5083377;28;20048;-73
2023/09/07 08:42:04;;;;;;;1.92;0.50;;;;;;;;;;5083773;28;20056;-74
2023/09/07 08:44:39;;;;;;;1.33;0.60;;;;;;;;;;5083545;28;20055;-75
2023/09/07 08:47:11;;;;;;;1.40;0.47;;;;;;;;;;5065088;28;20051;-75
2023/09/07 08:49:43;;;;;;;2.03;0.52;;;;;;;;;;5083556;28;20403;-76
2023/09/07 08:52:15;;;;;;;2.83;0.70;;;;;;;;;;5083403;28;20522;-75
2023/09/07 08:54:47;;;;;;;3.58;0.60;;;;;;;;;;5083061;28;20040;-74
2023/09/07 08:57:21;;;;;;;1.58;0.60;;;;;;;;;;5084106;28;20051;-74
2023/09/07 08:59:52;;;;;;;2.30;0.50;;;;;;;;;;5082865;28;20534;-75
2023/09/07 09:02:22;;;;;;;1.40;0.57;;;;;;;;;;5082148;28;20060;-75
2023/09/07 09:04:53;;;;;;;0.45;0.43;;;;;;;;;;5083604;28;20056;-75
2023/09/07 09:07:24;;;;;;;0.90;0.65;;;;;;;;;;5083263;28;20054;-75
2023/09/07 09:10:05;;;;;;;4.60;0.60;;;;;;;;;;5082715;28;20529;-76
2023/09/07 09:12:35;;;;;;;2.03;0.52;;;;;;;;;;5082542;28;20051;-76
2023/09/07 09:15:06;;;;;;;3.55;0.88;;;;;;;;;;5083011;28;20040;-74
2023/09/07 09:17:37;;;;;;;1.38;0.70;;;;;;;;;;5083207;28;20048;-75
2023/09/07 09:20:22;;;;;;;2.50;0.77;;;;;;;;;;5083097;28;20080;-75
2023/09/07 09:22:54;;;;;;;5.55;1.08;;;;;;;;;;5082408;28;20052;-75
2023/09/07 09:25:26;;;;;;;1.23;0.57;;;;;;;;;;5081972;28;20048;-74
2023/09/07 09:27:58;;;;;;;2.53;1.23;;;;;;;;;;5083309;28;20071;-76
2023/09/07 09:30:29;;;;;;;1.75;0.70;;;;;;;;;;5082988;28;20498;-74
2023/09/07 09:32:59;;;;;;;1.27;0.60;;;;;;;;;;5081981;28;20055;-76
2023/09/07 09:35:31;;;;;;;1.15;0.35;;;;;;;;;;5083045;28;20560;-76
2023/09/07 09:38:05;;;;;;;0.90;0.40;;;;;;;;;;5082618;28;20048;-75
2023/09/07 09:40:37;;;;;;;1.55;0.60;;;;;;;;;;5083135;28;20062;-75
2023/09/07 09:43:09;;;;;;;3.30;0.63;;;;;;;;;;5081979;28;20503;-75
2023/09/07 09:45:40;;;;;;;1.05;0.40;;;;;;;;;;5080927;28;20052;-75
2023/09/07 09:48:11;;;;;;;1.10;0.57;;;;;;;;;;5082860;28;20126;-74
2023/09/07 09:50:44;;;;;;;1.27;0.50;;;;;;;;;;5083135;28;20051;-74
2023/09/07 09:53:18;;;;;;;0.85;0.50;;;;;;;;;;5082414;28;20070;-75
2023/09/07 09:55:49;;;;;;;4.47;0.60;;;;;;;;;;5082126;28;20056;-74
2023/09/07 09:58:21;;;;;;;0.80;0.38;;;;;;;;;;5080703;28;20691;-79
2023/09/07 10:00:56;;;;;;;3.95;0.73;;;;;;;;;;5082638;28;20056;-75
2023/09/07 10:03:33;;;;;;;4.57;0.88;;;;;;;;;;5082392;28;20044;-75
2023/09/07 10:06:11;;;;;;;0.70;0.63;;;;;;;;;;5082241;28;20071;-74
2023/09/07 10:08:54;;;;;;;4.13;0.63;;;;;;;;;;5082269;28;20530;-76
2023/09/07 10:11:31;;;;;;;2.53;0.65;;;;;;;;;;5082445;28;20414;-76
2023/09/07 10:14:03;;;;;;;2.20;0.80;;;;;;;;;;5082357;28;20063;-74
2023/09/07 10:16:48;;;;;;;1.02;0.68;;;;;;;;;;5082441;28;20044;-75
2023/09/07 10:19:24;;;;;;;1.05;0.70;;;;;;;;;;5082243;28;20040;-74
2023/09/07 10:21:56;;;;;;;;;;;;;;;;;;5083020;28;20051;-73
2023/09/07 10:24:33;;;;;;;0.30;0.30;;;;;;;;;;5081854;28;19924;-77
2023/09/07 10:27:05;;;;;;;1.95;0.73;;;;;;;;;;5081047;28;20067;-76
2023/09/07 10:29:47;;;;;;;1.65;0.57;;;;;;;;;;5080500;28;20040;-75
2023/09/07 10:32:23;;;;;;;0.52;0.40;;;;;;;;;;5081300;28;20071;-75
2023/09/07 10:34:55;;;;;;;0.65;0.43;;;;;;;;;;5082138;28;20059;-74
2023/09/07 10:37:29;;;;;;;1.63;0.70;;;;;;;;;;5083400;28;20056;-74
2023/09/07 10:40:00;;;;;;;1.20;0.70;;;;;;;;;;5086423;28;20044;-75
2023/09/07 10:42:32;;;;;;;2.67;0.60;;;;;;;;;;5086836;28;20059;-75
2023/09/07 10:45:15;;;;;;;0.43;0.32;;;;;;;;;;5085602;28;20048;-74
2023/09/07 10:47:46;;;;;;;1.75;0.47;;;;;;;;;;5086611;28;20051;-78
2023/09/07 10:50:18;;;;;;;0.95;0.52;;;;;;;;;;5087218;28;20040;-75
2023/09/07 10:52:49;;;;;;;1.90;0.25;;;;;;;;;;5086644;28;20427;-74
2023/09/07 10:55:19;;;;;;;0.40;0.40;;;;;;;;;;5086501;28;20044;-76
2023/09/07 10:57:49;;;;;;;1.33;0.60;;;;;;;;;;5086464;28;20051;-75
2023/09/07 11:00:20;;;;;;;1.65;0.40;;;;;;;;;;5085945;28;20409;-77
2023/09/07 11:02:50;;;;;;;1.75;0.52;;;;;;;;;;5085310;28;20427;-73
2023/09/07 11:05:21;;;;;;;2.05;0.52;;;;;;;;;;5086065;28;20059;-76
2023/09/07 11:07:51;;;;;;;0.50;0.50;;;;;;;;;;5086799;28;20044;-75
2023/09/07 11:10:22;;;;;;;3.33;0.70;;;;;;;;;;5085593;28;20048;-72
2023/09/07 11:12:53;;;;;;;2.83;0.47;;;;;;;;;;5085814;28;20059;-74
2023/09/07 11:15:23;;;;;;;2.55;0.52;;;;;;;;;;5086085;28;20084;-77
2023/09/07 11:17:54;;;;;;;1.40;0.80;;;;;;;;;;5086015;28;20522;-74
2023/09/07 11:20:26;;;;;;;1.65;0.50;;;;;;;;;;5086243;28;20063;-74
2023/09/07 11:22:57;;;;;;;2.13;0.40;;;;;;;;;;5085852;28;20380;-73
2023/09/07 11:25:38;;;;;;;1.08;0.60;;;;;;;;;;5086824;28;20048;-74
2023/09/07 11:28:11;;;;;;;2.10;0.90;;;;;;;;;;5086327;28;20048;-76
2023/09/07 11:30:55;;;;;;;1.52;0.63;;;;;;;;;;5083675;28;20063;-75
2023/09/07 11:33:27;;;;;;;2.83;0.82;;;;;;;;;;5084566;28;20043;-75
2023/09/07 11:35:57;;;;;;;0.95;0.60;;;;;;;;;;5084881;28;20415;-75
2023/09/07 11:38:36;;;;;;;5.30;0.80;;;;;;;;;;5084962;28;20059;-77
2023/09/07 11:41:07;;;;;;;1.38;0.50;;;;;;;;;;5084599;28;20503;-76
2023/09/07 11:43:41;;;;;;;3.30;0.60;;;;;;;;;;5084895;28;20044;-75
2023/09/07 11:46:12;;;;;;;0.73;0.50;;;;;;;;;;5084580;28;20048;-75
2023/09/07 11:48:42;;;;;;;1.88;0.50;;;;;;;;;;5083846;28;20071;-74
2023/09/07 11:51:13;;;;;;;2.08;1.17;;;;;;;;;;5084817;28;20048;-75
2023/09/07 11:53:45;;;;;;;1.58;0.70;;;;;;;;;;5085104;28;20048;-77
2023/09/07 11:56:15;;;;;;;1.88;0.60;;;;;;;;;;5085694;28;20394;-76
2023/09/07 11:58:46;;;;;;;3.20;0.55;;;;;;;;;;5084633;28;20052;-75
2023/09/07 12:01:17;;;;;;;1.08;0.68;;;;;;;;;;5084768;28;20052;-74
2023/09/07 12:03:48;;;;;;;1.75;0.70;;;;;;;;;;5084072;28;20518;-74
2023/09/07 12:06:18;;;;;;;1.00;0.73;;;;;;;;;;5084024;28;20075;-74
2023/09/07 12:09:17;;;;;;;2.40;0.77;;;;;;;;;;5083897;28;20553;-74
2023/09/07 12:11:48;;;;;;;0.82;0.70;;;;;;;;;;5083558;28;20134;-73
2023/09/07 12:14:19;;;;;;;1.67;1.00;;;;;;;;;;5084164;28;20418;-74
2023/09/07 12:16:49;;;;;;;0.77;0.55;;;;;;;;;;5083288;28;20040;-74
2023/09/07 12:19:20;;;;;;;3.72;0.77;;;;;;;;;;5084134;28;20048;-74
2023/09/07 12:21:51;;;;;;;0.88;0.63;;;;;;;;;;5083661;28;20048;-73
2023/09/07 12:24:22;;;;;;;4.25;1.92;;;;;;;;;;5081585;28;20063;-77
2023/09/07 12:26:52;;;;;;;2.13;1.20;;;;;;;;;;5081203;28;20040;-75
2023/09/07 12:29:22;;;;;;;1.30;1.00;;;;;;;;;;5080979;28;20058;-74
2023/09/07 12:31:56;;;;;;;1.08;0.82;;;;;;;;;;5080517;28;20044;-73
2023/09/07 12:34:27;;;;;;;2.47;0.60;;;;;;;;;;5079374;28;20058;-76
2023/09/07 12:37:06;;;;;;;1.27;0.80;;;;;;;;;;5081012;28;20043;-75
2023/09/07 12:39:36;;;;;;;1.08;0.70;;;;;;;;;;5081002;28;20044;-74
2023/09/07 12:42:06;;;;;;;1.15;0.60;;;;;;;;;;5080902;28;20048;-74
2023/09/07 12:44:38;;;;;;;3.10;0.68;;;;;;;;;;5081235;28;20047;-73
2023/09/07 12:47:09;;;;;;;1.55;0.70;;;;;;;;;;5079428;28;20541;-74
2023/09/07 12:49:38;;;;;;;2.15;0.90;;;;;;;;;;5079323;28;20052;-75
2023/09/07 12:52:10;;;;;;;1.70;0.55;;;;;;;;;;5080785;28;20078;-75
2023/09/07 12:54:41;;;;;;;3.47;1.13;;;;;;;;;;5081090;28;20071;-74
2023/09/07 12:57:17;;;;;;;1.77;0.70;;;;;;;;;;5079352;28;20087;-77
2023/09/07 12:59:49;;;;;;;1.23;0.43;;;;;;;;;;5080483;28;20415;-74
2023/09/07 13:02:19;;;;;;;1.15;0.88;;;;;;;;;;5080029;28;20126;-75
2023/09/07 13:04:50;;;;;;;2.17;0.77;;;;;;;;;;5080591;28;20499;-75
2023/09/07 13:07:20;;;;;;;3.30;0.57;;;;;;;;;;5080148;28;20071;-75
2023/09/07 13:09:50;;;;;;;1.40;0.70;;;;;;;;;;5080458;28;20123;-73
2023/09/07 13:12:20;;;;;;;0.88;0.70;;;;;;;;;;5080095;28;20051;-74
2023/09/07 13:14:51;;;;;;;1.02;0.65;;;;;;;;;;5080506;28;20058;-75
2023/09/07 13:17:22;;;;;;;1.77;0.73;;;;;;;;;;5079937;28;20048;-74
2023/09/07 13:19:53;;;;;;;1.05;0.80;;;;;;;;;;5080341;28;20047;-74
2023/09/07 13:22:23;;;;;;;1.52;1.00;;;;;;;;;;5078358;28;20051;-77
2023/09/07 13:24:54;;;;;;;1.08;0.90;;;;;;;;;;5080467;28;20545;-74
2023/09/07 13:27:25;;;;;;;1.25;0.70;;;;;;;;;;5077520;28;20515;-77
2023/09/07 13:29:57;;;;;;;1.70;0.80;;;;;;;;;;5079762;28;20052;-75
2023/09/07 13:32:27;;;;;;;1.90;1.10;;;;;;;;;;5080307;28;20051;-73
2023/09/07 13:34:59;;;;;;;0.75;0.70;;;;;;;;;;5080325;28;20044;-74
2023/09/07 13:37:29;;;;;;;1.08;0.80;;;;;;;;;;5078661;28;20051;-74
2023/09/07 13:40:00;;;;;;;2.13;1.05;;;;;;;;;;5077645;28;20058;-75
2023/09/07 13:42:30;;;;;;;2.60;0.80;;;;;;;;;;5080107;28;20058;-73
2023/09/07 13:45:00;;;;;;;5.75;1.10;;;;;;;;;;5080707;28;20487;-74
2023/09/07 13:47:30;;;;;;;4.47;1.05;;;;;;;;;;5080133;28;20048;-76
2023/09/07 13:50:02;;;;;;;1.65;0.90;;;;;;;;;;5080218;28;20039;-74
2023/09/07 13:52:33;;;;;;;0.82;0.70;;;;;;;;;;5080516;28;20590;-74
2023/09/07 13:55:03;;;;;;;3.38;0.85;;;;;;;;;;5079875;28;20665;-77
2023/09/07 13:57:34;;;;;;;2.30;0.80;;;;;;;;;;5079496;28;20040;-77
2023/09/07 14:00:05;;;;;;;1.27;0.70;;;;;;;;;;5079822;28;20122;-76
2023/09/07 14:02:36;;;;;;;2.83;1.10;;;;;;;;;;5079633;28;20067;-74
2023/09/07 14:05:07;;;;;;;3.78;1.00;;;;;;;;;;5079498;28;20490;-74
2023/09/07 14:07:42;;;;;;;2.58;0.98;;;;;;;;;;5077365;28;20051;-75
2023/09/07 14:10:13;;;;;;;1.80;0.90;;;;;;;;;;5079669;28;20510;-74
2023/09/07 14:12:44;;;;;;;2.92;1.42;;;;;;;;;;5078360;28;20056;-75
2023/09/07 14:15:15;;;;;;;3.00;1.15;;;;;;;;;;5079616;28;20059;-76
2023/09/07 14:17:45;;;;;;;2.38;0.88;;;;;;;;;;5079378;28;20051;-73
2023/09/07 14:20:16;;;;;;;3.38;1.10;;;;;;;;;;5079492;28;20515;-78
2023/09/07 14:22:47;;;;;;;0.90;0.77;;;;;;;;;;5078780;28;20055;-77
2023/09/07 14:25:16;;;;;;;1.15;0.70;;;;;;;;;;5061993;28;20067;-75
2023/09/07 14:27:51;;;;;;;1.83;0.90;;;;;;;;;;5077634;28;20397;-74
2023/09/07 14:30:21;;;;;;;3.65;1.58;;;;;;;;;;5078684;28;20044;-75
2023/09/07 14:32:53;;;;;;;2.17;0.82;;;;;;;;;;5079072;28;20055;-73
2023/09/07 14:35:24;;;;;;;1.55;1.00;;;;;;;;;;5080013;28;20044;-77
2023/09/07 14:37:54;;;;;;;1.45;0.85;;;;;;;;;;5078461;28;20390;-76
2023/09/07 14:40:24;;;;;;;1.75;0.95;;;;;;;;;;5079347;28;20060;-75
2023/09/07 14:42:57;;;;;;;2.35;1.05;;;;;;;;;;5078617;28;20051;-75
2023/09/07 14:45:28;;;;;;;6.00;1.08;;;;;;;;;;5078951;28;20052;-75
2023/09/07 14:47:58;;;;;;;4.13;1.10;;;;;;;;;;5079296;28;20044;-77
2023/09/07 14:50:29;;;;;;;1.75;0.90;;;;;;;;;;5078679;28;20044;-75
2023/09/07 14:52:59;;;;;;;2.50;1.15;;;;;;;;;;5079181;28;20044;-77
2023/09/07 14:55:30;;;;;;;2.75;1.23;;;;;;;;;;5078364;28;20063;-75
2023/09/07 14:58:00;;;;;;;2.47;1.13;;;;;;;;;;5078986;28;20044;-78
2023/09/07 15:00:36;;;;;;;2.72;1.13;;;;;;;;;;5078519;28;20040;-76
2023/09/07 15:03:06;;;;;;;1.50;0.90;;;;;;;;;;5078686;28;20858;-78
2023/09/07 15:05:37;;;;;;;1.40;1.15;;;;;;;;;;5078421;28;20055;-77
2023/09/07 15:08:08;;;;;;;3.88;1.20;;;;;;;;;;5078377;28;20044;-77
2023/09/07 15:10:38;;;;;;;1.27;0.90;;;;;;;;;;5078753;28;20052;-76